Adamsdale, Pennsylvania
Current Conditions -  °F | °C
As of 10:54 PM on Saturday 20 Dec 2014 (Local Time) from KRDG Reporting Station
Overcast Overcast  
Wind Chill: 32°   Ceiling: 3200
Heat Index: 32°   Visibility: 10mi
Dew Point: 22°   Wind: 0mph
Humidity: 66%   Direction: NA
Pressure: 30.29"   Gusts: NA
Location:  40.6412°N, 76.1672°W
Report Text: KRDG 210354Z AUTO 00000KT 10SM OVC032 00/M06 A3029 RMK AO2 SLP265 T00001056
Loading
Personal Weather Stations






























Interactive Weather Map New forecast layout! Learn more

10-Day Weather Forecast

Advertisements
Track Severe Weather on mobile